Pine Bluff, AR (71612)

6:09 AM CDT on July 23, 2014 (GMT -0500)
Pine Bluff - Deerfield (KARPINEB2) Elev 228 ft | 34.15 °N, 92.01 °W | Change Station

Current weather conditions updated 10 seconds ago

Clear
Clear
68.9 °F
Feels Like 68.9 °F
N
0.0
Wind Variable Wind from SSE
Gusts 0.0 mph

Today is forecast to be Warmer than yesterday.

Today
High -- | Low -- °F
--% Chance of Precip.
Yesterday
High -- | Low -- °F
Precip. -- in
6:12 AM 8:16 PM
Waning Crescent, 11% visible
Pressure 30.06 in
Visibility 6.0 miles
Clouds Clear
Dew Point 68 °F
Humidity 97%
Rainfall 0.00 in
Snow Depth Not available.
UV 0 out of 12
Pollen 3.60 out of 12
Air Quality Not available.
Flu Activity Not available.
METAR KPBF 231053Z AUTO 00000KT 6SM BR CLR 21/20 A3007 RMK AO2 SLP179 T02060200

More Conditions Fewer Conditions

Pressure 30.06 in
Visibility 6.0 miles
Clouds Clear
Dew Point 68 °F
Humidity 97%
Rainfall 0.00 in
Snow Depth Not available.
UV 0 out of 12
Pollen 3.60 out of 12
Air Quality Not available.
Flu Activity Not available.
METAR KPBF 231053Z AUTO 00000KT 6SM BR CLR 21/20 A3007 RMK AO2 SLP179 T02060200

More Conditions Fewer Conditions

10-Day Weather Forecast

Almanac

Astronomy

Jul. 23, 2014 Rise Set
Actual Time 6:12 AM CDT 8:16 PM CDT
Civil Twilight 5:44 AM CDT 8:44 PM CDT
Nautical Twilight 5:10 AM CDT 9:18 PM CDT
Astronomical Twilight 4:33 AM CDT 9:54 PM CDT
Moon 3:30 AM CDT 5:45 PM CDT
Length of Visible Light 14h 59m
Length of Day
14h 03m
Tomorrow will be 1m 21s shorter.
Waning Crescent, 11% of the Moon is Illuminated
Today
Waning Crescent
Jul 26
New
Aug 3
First Quarter
Aug 10
Full
Aug 17
Last Quarter

Today's Extremes

State Highs State Lows

Community

WunderPhotos

Upload Photos

1,736,558 photos uploaded!

Nearby

Snow Depth

Station Depth Elevation
No new snow has been reported.

Earthquake Activity

City Distance Mag. Time & Date
No recent earthquake activity has been reported nearby.
Minimum magnitude displayed is 2.5.

Coastal Water Temperatures

Place Temperature
No Stations Reporting

Nearby Weather Stations

Station Location Temp. Heat Index Dew Point Humidity Wind Precip. Elev Updated Type
MesoWest UAPB CAMPUS-PB , Pine Bluff, AR 68 °F - 68 °F 100% West  at  0 mph 0.00 in / hr 231 ft 5:00 AM CDT MADIS
MesoWest VIKING , White Hall, AR 73 °F 71 °F - - North  at  - 0.00 in / hr 229 ft 5:00 AM CDT MADIS
Pine Bluff - Deerfield, Pine Bluff, AR 68.9 °F - 68 °F 97% SSE  at  0.0 mph 0.00 in / hr 228 ft 6:09 AM CDT Rapid Fire
MesoWest MOSCOW , Moscow, AR 69 °F - - - North  at  - 0.00 in / hr 209 ft 3:55 AM CDT MADIS
MesoWest ARIVER , Altheimer, AR 73 °F 71 °F - - North  at  - 0.00 in / hr 211 ft 4:20 AM CDT MADIS
MesoWest HUMPRY , Wabbaseka, AR 70 °F - - - North  at  - 0.00 in / hr 191 ft 4:10 AM CDT MADIS
MesoWest GRADY , Grady, AR 70 °F - - - North  at  - 0.00 in / hr 191 ft 4:05 AM CDT MADIS
MesoWest RISON , Rison, AR 82 °F 80 °F - - North  at  - 0.00 in / hr 204 ft 3:15 AM CDT MADIS

Show More Stations Show Fewer Stations